Time;durP1;ratioP1;P1;durP2;ratioP2;P2;SDS_P1;SDS_P2;PMS_P1;PMS_P2;Temp;Humidity;BMP_temperature;BMP_pressure;BME280_temperature;BME280_humidity;BME280_pressure;Samples;Min_cycle;Max_cycle;Signal;HPM_P1;HPM_P2
2022/01/31 00:00:39;;;;;;;;;;;4.70;46.00;;;;;;5093160;28;19908;-75
2022/01/31 00:03:05;;;;;;;;;;;4.60;47.10;;;;;;5093012;28;19920;-75
2022/01/31 00:05:30;;;;;;;;;;;4.60;47.50;;;;;;5092847;28;20145;-75
2022/01/31 00:07:56;;;;;;;;;;;4.70;47.40;;;;;;5093153;28;19908;-75
2022/01/31 00:10:28;;;;;;;;;;;4.80;46.90;;;;;;5092365;28;19908;-75
2022/01/31 00:13:01;;;;;;;;;;;4.80;47.80;;;;;;5093142;28;19908;-75
2022/01/31 00:15:27;;;;;;;;;;;4.80;47.00;;;;;;5092443;28;19970;-75
2022/01/31 00:17:52;;;;;;;;;;;4.90;46.70;;;;;;5092966;28;20364;-75
2022/01/31 00:20:18;;;;;;;;;;;4.90;47.10;;;;;;5092333;28;19908;-75
2022/01/31 00:22:43;;;;;;;;;;;4.90;47.40;;;;;;5092563;28;19916;-75
2022/01/31 00:25:09;;;;;;;;;;;4.90;47.50;;;;;;5092950;28;19931;-75
2022/01/31 00:27:35;;;;;;;;;;;4.90;47.00;;;;;;5074209;28;19958;-75
2022/01/31 00:30:00;;;;;;;;;;;4.90;47.20;;;;;;5092552;28;20058;-74
2022/01/31 00:32:29;;;;;;;;;;;4.90;48.10;;;;;;5092288;28;20229;-75
2022/01/31 00:34:58;;;;;;;;;;;5.00;47.60;;;;;;5092787;28;20003;-75
2022/01/31 00:37:24;;;;;;;;;;;5.00;48.10;;;;;;5092144;28;19916;-75
2022/01/31 00:39:50;;;;;;;;;;;4.90;49.80;;;;;;5074662;28;19915;-75
2022/01/31 00:42:15;;;;;;;;;;;4.90;50.10;;;;;;5091245;28;19985;-75
2022/01/31 00:44:50;;;;;;;;;;;5.00;49.80;;;;;;5092362;28;19908;-75
2022/01/31 00:47:20;;;;;;;;;;;4.90;50.30;;;;;;5073925;28;19914;-75
2022/01/31 00:49:50;;;;;;;;;;;4.90;51.10;;;;;;5092517;28;19990;-75
2022/01/31 00:52:16;;;;;;;;;;;4.90;51.00;;;;;;5092095;28;19908;-75
2022/01/31 00:54:42;;;;;;;;;;;4.90;50.70;;;;;;5092590;28;19909;-75
2022/01/31 00:57:07;;;;;;;;;;;4.90;50.20;;;;;;5091960;28;19934;-75
2022/01/31 00:59:33;;;;;;;;;;;4.90;50.60;;;;;;5092404;28;20448;-75
2022/01/31 01:01:58;;;;;;;;;;;4.90;51.70;;;;;;5092117;28;19928;-75
2022/01/31 01:04:24;;;;;;;;;;;4.90;52.60;;;;;;5092290;28;19916;-75
2022/01/31 01:06:49;;;;;;;;;;;4.90;52.90;;;;;;5092207;28;19908;-75
2022/01/31 01:09:15;;;;;;;;;;;;;;;;;;5092194;28;19908;-78
2022/01/31 01:11:41;;;;;;;;;;;;;;;;;;5096082;28;19916;-75
2022/01/31 01:14:07;;;;;;;;;;;4.90;54.10;;;;;;5096106;28;19915;-75
2022/01/31 01:16:32;;;;;;;;;;;4.90;53.20;;;;;;5077348;28;20249;-75
2022/01/31 01:18:58;;;;;;;;;;;4.80;54.60;;;;;;5077845;28;20368;-75
2022/01/31 01:21:23;;;;;;;;;;;4.80;55.70;;;;;;5095444;28;19938;-75
2022/01/31 01:23:49;;;;;;;;;;;4.90;54.90;;;;;;5095866;28;20378;-75
2022/01/31 01:26:15;;;;;;;;;;;4.80;56.20;;;;;;5077649;28;19915;-75
2022/01/31 01:28:40;;;;;;;;;;;4.90;56.50;;;;;;5095196;28;19914;-75
2022/01/31 01:31:06;;;;;;;;;;;4.90;55.60;;;;;;5095703;28;19955;-75
2022/01/31 01:33:38;;;;;;;;;;;4.90;55.30;;;;;;5095144;28;20010;-75
2022/01/31 01:36:04;;;;;;;;;;;4.90;55.30;;;;;;5095925;28;19908;-75
2022/01/31 01:38:30;;;;;;;;;;;5.00;55.40;;;;;;5095100;28;19955;-75
2022/01/31 01:40:59;;;;;;;;;;;4.90;54.80;;;;;;5089723;28;19915;-75
2022/01/31 01:43:25;;;;;;;;;;;;;;;;;;5074358;28;20265;-75
2022/01/31 01:45:51;;;;;;;;;;;5.00;54.70;;;;;;5075406;28;19916;-75
2022/01/31 01:48:17;;;;;;;;;;;;;;;;;;5074603;28;19948;-77
2022/01/31 01:50:43;;;;;;;;;;;5.00;54.60;;;;;;5075196;28;19962;-74
2022/01/31 01:53:09;;;;;;;;;;;5.00;54.50;;;;;;5075580;28;19916;-75
2022/01/31 01:55:34;;;;;;;;;;;5.00;55.00;;;;;;5074873;28;19947;-75
2022/01/31 01:58:00;;;;;;;;;;;5.10;55.10;;;;;;5057055;28;20271;-74
2022/01/31 02:00:27;;;;;;;;;;;5.00;56.20;;;;;;5074087;28;19913;-75
2022/01/31 02:02:54;;;;;;;;;;;5.00;56.90;;;;;;5086970;28;19920;-74
2022/01/31 02:05:20;;;;;;;;;;;5.00;58.00;;;;;;5094315;28;20295;-75
2022/01/31 02:07:45;;;;;;;;;;;5.00;58.50;;;;;;5094823;28;19908;-75
2022/01/31 02:10:12;;;;;;;;;;;5.00;58.60;;;;;;5076927;28;19915;-75
2022/01/31 02:12:41;;;;;;;;;;;5.00;60.60;;;;;;5094313;28;20407;-76
2022/01/31 02:15:08;;;;;;;;;;;5.00;63.80;;;;;;5094947;28;19915;-76
2022/01/31 02:17:33;;;;;;;;;;;4.90;66.10;;;;;;5094321;28;19908;-75
2022/01/31 02:19:59;;;;;;;;;;;4.90;69.40;;;;;;5076490;28;20364;-75
2022/01/31 02:22:24;;;;;;;;;;;4.80;72.20;;;;;;5094387;28;19916;-76
2022/01/31 02:24:50;;;;;;;;;;;4.80;76.90;;;;;;5076877;28;19908;-76
2022/01/31 02:27:22;;;;;;;;;;;4.70;85.20;;;;;;5095011;28;20399;-76
2022/01/31 02:29:48;;;;;;;;;;;4.60;91.20;;;;;;5076780;28;20368;-75
2022/01/31 02:32:14;;;;;;;;;;;4.50;92.90;;;;;;5094701;28;19919;-76
2022/01/31 02:34:40;;;;;;;;;;;4.40;94.70;;;;;;5093964;28;20039;-76
2022/01/31 02:37:08;;;;;;;;;;;;;;;;;;5076317;28;20351;-75
2022/01/31 02:39:34;;;;;;;;;;;4.30;99.90;;;;;;5093860;28;19908;-76
2022/01/31 02:41:59;;;;;;;;;;;4.30;99.90;;;;;;5094536;28;19939;-75
2022/01/31 02:44:25;;;;;;;;;;;4.20;99.90;;;;;;5075271;28;20004;-76
2022/01/31 02:46:53;;;;;;;;;;;4.20;99.90;;;;;;5076162;28;20031;-74
2022/01/31 02:49:22;;;;;;;;;;;4.10;99.90;;;;;;5076144;28;19908;-74
2022/01/31 02:51:57;;;;;;;;;;;4.10;99.90;;;;;;5094264;28;19912;-75
2022/01/31 02:54:23;;;;;;;;;;;4.00;99.90;;;;;;5093583;28;19916;-75
2022/01/31 02:56:49;;;;;;;;;;;;;;;;;;5093842;28;19908;-74
2022/01/31 02:59:15;;;;;;;;;;;3.90;99.90;;;;;;5093859;28;20432;-76
2022/01/31 03:01:40;;;;;;;;;;;3.90;99.90;;;;;;5093451;28;20393;-75
2022/01/31 03:04:07;;;;;;;;;;;3.80;99.90;;;;;;5093923;28;19934;-74
2022/01/31 03:06:33;;;;;;;;;;;3.80;99.90;;;;;;5093383;28;19990;-75
2022/01/31 03:08:58;;;;;;;;;;;3.80;99.90;;;;;;5075730;28;19908;-75
2022/01/31 03:11:25;;;;;;;;;;;;;;;;;;5087780;28;20375;-75
2022/01/31 03:13:51;;;;;;;;;;;3.80;99.90;;;;;;5073597;28;19959;-75
2022/01/31 03:16:16;;;;;;;;;;;3.80;99.90;;;;;;5073543;28;19966;-75
2022/01/31 03:18:42;;;;;;;;;;;3.80;99.90;;;;;;5072589;28;19917;-75
2022/01/31 03:21:07;;;;;;;;;;;3.80;99.90;;;;;;5055585;28;19912;-75
2022/01/31 03:23:34;;;;;;;;;;;3.90;99.90;;;;;;5054829;28;19923;-75
2022/01/31 03:25:59;;;;;;;;;;;4.00;99.90;;;;;;5088988;28;19909;-74
2022/01/31 03:28:25;;;;;;;;;;;4.10;99.90;;;;;;5072770;28;20349;-74
2022/01/31 03:30:51;;;;;;;;;;;;;;;;;;5073319;28;19908;-75
2022/01/31 03:33:17;;;;;;;;;;;4.10;99.90;;;;;;5073016;28;20011;-74
2022/01/31 03:35:42;;;;;;;;;;;4.10;99.90;;;;;;5054601;28;19955;-75
2022/01/31 03:38:08;;;;;;;;;;;4.20;99.90;;;;;;5073255;28;19913;-74
2022/01/31 03:40:33;;;;;;;;;;;4.30;99.90;;;;;;5072260;28;19908;-74
2022/01/31 03:42:59;;;;;;;;;;;4.30;99.90;;;;;;5073089;28;19916;-76
2022/01/31 03:45:25;;;;;;;;;;;;;;;;;;5072251;28;19908;-77
2022/01/31 03:47:50;;;;;;;;;;;4.50;99.90;;;;;;5073176;28;19908;-75
2022/01/31 03:50:17;;;;;;;;;;;4.60;99.90;;;;;;5073174;28;19908;-74
2022/01/31 03:52:43;;;;;;;;;;;4.60;99.90;;;;;;5072444;28;19978;-75
2022/01/31 03:55:10;;;;;;;;;;;4.60;99.90;;;;;;5073389;28;20356;-75
2022/01/31 03:57:35;;;;;;;;;;;4.60;99.90;;;;;;5072392;28;19979;-75
2022/01/31 04:00:04;;;;;;;;;;;;;;;;;;5072864;28;19908;-75
2022/01/31 04:02:30;;;;;;;;;;;;;;;;;;5053984;28;19975;-74
2022/01/31 04:04:55;;;;;;;;;;;4.70;99.90;;;;;;5072646;28;20280;-75
2022/01/31 04:07:21;;;;;;;;;;;4.80;99.90;;;;;;5072862;28;19909;-74
2022/01/31 04:09:46;;;;;;;;;;;4.80;99.90;;;;;;5072580;28;19950;-75
2022/01/31 04:12:12;;;;;;;;;;;4.80;99.90;;;;;;5063581;28;20341;-75
2022/01/31 04:14:37;;;;;;;;;;;4.80;99.90;;;;;;5092442;28;19912;-75
2022/01/31 04:17:07;;;;;;;;;;;4.80;99.90;;;;;;5092982;28;19908;-75
2022/01/31 04:19:32;;;;;;;;;;;4.80;99.90;;;;;;5092370;28;19938;-76
2022/01/31 04:21:58;;;;;;;;;;;;;;;;;;5074788;28;19961;-74
2022/01/31 04:24:31;;;;;;;;;;;;;;;;;;5092942;28;20003;-74
2022/01/31 04:27:05;;;;;;;;;;;5.00;99.90;;;;;;5092699;28;20369;-75
2022/01/31 04:29:37;;;;;;;;;;;5.00;99.90;;;;;;5074323;28;19931;-72
2022/01/31 04:32:04;;;;;;;;;;;5.10;99.90;;;;;;5093039;28;20006;-74
2022/01/31 04:34:31;;;;;;;;;;;5.20;99.90;;;;;;5092174;28;19912;-76
2022/01/31 04:36:57;;;;;;;;;;;5.20;99.90;;;;;;5092839;28;19915;-76
2022/01/31 04:39:22;;;;;;;;;;;5.30;99.90;;;;;;5092747;28;19915;-76
2022/01/31 04:41:49;;;;;;;;;;;5.30;99.90;;;;;;5092042;28;19911;-74
2022/01/31 04:44:15;;;;;;;;;;;5.30;99.90;;;;;;5093040;28;19908;-76
2022/01/31 04:46:40;;;;;;;;;;;5.30;99.90;;;;;;5096080;28;19914;-76
2022/01/31 04:49:06;;;;;;;;;;;5.20;99.90;;;;;;5096625;28;19908;-76
2022/01/31 04:51:32;;;;;;;;;;;5.30;99.90;;;;;;5096025;28;19915;-76
2022/01/31 04:53:57;;;;;;;;;;;5.40;99.90;;;;;;5078666;28;20304;-72
2022/01/31 04:56:23;;;;;;;;;;;;;;;;;;5096514;28;19915;-77
2022/01/31 04:58:49;;;;;;;;;;;5.40;99.90;;;;;;5077600;28;19958;-76
2022/01/31 05:01:14;;;;;;;;;;;5.40;99.90;;;;;;5096372;28;19915;-76
2022/01/31 05:03:41;;;;;;;;;;;5.50;99.90;;;;;;5096144;28;20018;-73
2022/01/31 05:06:08;;;;;;;;;;;5.50;99.90;;;;;;5116629;28;19914;-76
2022/01/31 05:08:35;;;;;;;;;;;5.50;99.90;;;;;;5116050;28;19915;-76
2022/01/31 05:11:01;;;;;;;;;;;5.50;99.90;;;;;;5116664;28;19931;-76
2022/01/31 05:13:26;;;;;;;;;;;5.50;99.90;;;;;;5116435;28;19908;-75
2022/01/31 05:15:55;;;;;;;;;;;5.50;99.90;;;;;;5097636;28;20348;-76
2022/01/31 05:18:21;;;;;;;;;;;5.60;99.90;;;;;;5116540;28;19908;-75
2022/01/31 05:20:46;;;;;;;;;;;5.50;99.90;;;;;;5115807;28;19953;-75
2022/01/31 05:23:12;;;;;;;;;;;5.50;99.90;;;;;;5115969;28;20276;-76
2022/01/31 05:25:37;;;;;;;;;;;5.60;99.90;;;;;;5115785;28;19912;-77
2022/01/31 05:28:04;;;;;;;;;;;5.50;99.90;;;;;;5097972;28;19914;-77
2022/01/31 05:30:30;;;;;;;;;;;5.50;99.90;;;;;;5098095;28;19908;-77
2022/01/31 05:32:55;;;;;;;;;;;5.60;99.90;;;;;;5116104;28;19960;-78
2022/01/31 05:35:21;;;;;;;;;;;5.60;99.90;;;;;;5098161;28;19911;-77
2022/01/31 05:37:46;;;;;;;;;;;5.60;99.90;;;;;;5097170;28;19912;-76
2022/01/31 05:40:12;;;;;;;;;;;5.50;99.90;;;;;;5116189;28;19916;-76
2022/01/31 05:42:38;;;;;;;;;;;5.60;99.90;;;;;;5115153;28;19919;-78
2022/01/31 05:45:06;;;;;;;;;;;5.70;99.90;;;;;;5116049;28;20044;-78
2022/01/31 05:47:33;;;;;;;;;;;5.70;99.90;;;;;;5115385;28;19908;-78
2022/01/31 05:49:58;;;;;;;;;;;5.70;99.90;;;;;;5115906;28;20367;-78
2022/01/31 05:52:25;;;;;;;;;;;5.70;99.90;;;;;;5115870;28;19912;-76
2022/01/31 05:54:50;;;;;;;;;;;5.80;99.90;;;;;;5115162;28;19912;-77
2022/01/31 05:57:16;;;;;;;;;;;5.80;99.90;;;;;;5115376;28;19960;-77
2022/01/31 05:59:41;;;;;;;;;;;5.80;99.90;;;;;;5114946;28;19918;-77
2022/01/31 06:02:07;;;;;;;;;;;5.70;99.90;;;;;;5109012;28;20018;-77
2022/01/31 06:04:33;;;;;;;;;;;;;;;;;;5094501;28;20372;-78
2022/01/31 06:06:59;;;;;;;;;;;5.80;99.90;;;;;;5095183;28;20364;-78
2022/01/31 06:09:27;;;;;;;;;;;;;;;;;;5076907;28;19912;-78
2022/01/31 06:11:52;;;;;;;;;;;5.70;99.90;;;;;;5094333;28;20267;-77
2022/01/31 06:14:18;;;;;;;;;;;5.90;98.80;;;;;;5094994;28;19912;-77
2022/01/31 06:16:43;;;;;;;;;;;5.80;98.90;;;;;;5094354;28;19909;-77
2022/01/31 06:19:09;;;;;;;;;;;5.80;98.50;;;;;;5094885;28;19955;-77
2022/01/31 06:21:35;;;;;;;;;;;;;;;;;;5094299;28;19908;-77
2022/01/31 06:24:01;;;;;;;;;;;;;;;;;;5094429;28;19919;-77
2022/01/31 06:26:28;;;;;;;;;;;5.80;98.50;;;;;;5076591;28;19912;-76
2022/01/31 06:28:53;;;;;;;;;;;5.80;98.30;;;;;;5076058;28;20153;-77
2022/01/31 06:31:19;;;;;;;;;;;5.80;97.50;;;;;;5094521;28;20272;-76
2022/01/31 06:33:44;;;;;;;;;;;5.80;97.30;;;;;;5093977;28;20315;-77
2022/01/31 06:36:10;;;;;;;;;;;5.80;97.90;;;;;;5094601;28;19908;-78
2022/01/31 06:38:36;;;;;;;;;;;5.80;97.60;;;;;;5093851;28;19908;-78
2022/01/31 06:41:02;;;;;;;;;;;5.80;97.10;;;;;;5094507;28;19931;-78
2022/01/31 06:43:28;;;;;;;;;;;5.70;97.10;;;;;;5076207;28;20296;-77
2022/01/31 06:45:54;;;;;;;;;;;5.60;96.90;;;;;;5093806;28;19912;-76
2022/01/31 06:48:19;;;;;;;;;;;5.60;97.40;;;;;;5094039;28;19974;-78
2022/01/31 06:50:45;;;;;;;;;;;5.60;98.20;;;;;;5075634;28;19996;-78
2022/01/31 06:53:12;;;;;;;;;;;;;;;;;;5076125;28;19908;-78
2022/01/31 06:55:37;;;;;;;;;;;5.50;99.10;;;;;;5075450;28;19954;-79
2022/01/31 06:58:03;;;;;;;;;;;5.40;99.90;;;;;;5094108;28;19908;-79
2022/01/31 07:00:29;;;;;;;;;;;5.30;99.90;;;;;;5094093;28;20406;-78
2022/01/31 07:02:54;;;;;;;;;;;5.20;99.90;;;;;;5092773;28;20261;-79
2022/01/31 07:05:21;;;;;;;;;;;5.20;99.90;;;;;;5094024;28;19912;-79
2022/01/31 07:07:46;;;;;;;;;;;5.10;99.90;;;;;;5092701;28;19915;-79
2022/01/31 07:10:12;;;;;;;;;;;5.10;99.90;;;;;;5093882;28;20272;-78
2022/01/31 07:12:40;;;;;;;;;;;5.00;99.90;;;;;;5093182;28;19918;-75
2022/01/31 07:15:07;;;;;;;;;;;5.00;99.90;;;;;;5093673;28;19908;-77
2022/01/31 07:17:37;;;;;;;;;;;5.00;99.90;;;;;;5075593;28;20010;-78
2022/01/31 07:20:04;;;;;;;;;;;5.00;99.90;;;;;;5093745;28;19908;-76
2022/01/31 07:22:35;;;;;;;;;;;;;;;;;;5093231;28;19922;-76
2022/01/31 07:25:09;;;;;;;;;;;4.90;99.90;;;;;;5093065;28;19908;-75
2022/01/31 07:27:36;;;;;;;;;;;4.90;99.90;;;;;;5093664;28;19930;-74
2022/01/31 07:30:02;;;;;;;;;;;5.00;99.90;;;;;;5093065;28;19931;-73
2022/01/31 07:32:28;;;;;;;;;;;;;;;;;;5093515;28;19920;-75
2022/01/31 07:34:55;;;;;;;;;;;4.90;99.90;;;;;;5092950;28;20344;-77
2022/01/31 07:37:22;;;;;;;;;;;4.90;99.90;;;;;;5093588;28;20271;-76
2022/01/31 07:39:48;;;;;;;;;;;4.90;99.90;;;;;;5092830;28;19994;-77
2022/01/31 07:42:13;;;;;;;;;;;4.90;99.90;;;;;;5093364;28;20014;-77
2022/01/31 07:44:39;;;;;;;;;;;;;;;;;;5074724;28;19908;-78
2022/01/31 07:47:05;;;;;;;;;;;4.90;99.90;;;;;;5093094;28;19908;-76
2022/01/31 07:49:31;;;;;;;;;;;5.00;99.90;;;;;;5093626;28;19971;-75
2022/01/31 07:51:58;;;;;;;;;;;5.00;99.90;;;;;;5092664;28;19959;-76
2022/01/31 07:54:23;;;;;;;;;;;5.00;99.90;;;;;;5075171;28;20413;-75
2022/01/31 07:56:49;;;;;;;;;;;5.00;99.90;;;;;;5092682;28;19912;-75
2022/01/31 07:59:14;;;;;;;;;;;5.00;99.90;;;;;;5093248;28;19955;-75
2022/01/31 08:01:40;;;;;;;;;;;;;;;;;;5092366;28;19913;-75
2022/01/31 08:04:06;;;;;;;;;;;5.00;99.90;;;;;;5093046;28;19920;-73
2022/01/31 08:06:32;;;;;;;;;;;4.90;99.90;;;;;;5093087;28;19912;-72
2022/01/31 08:08:58;;;;;;;;;;;4.90;99.90;;;;;;5092515;28;20453;-77
2022/01/31 08:11:29;;;;;;;;;;;;;;;;;;5090156;28;20391;-75
2022/01/31 08:13:59;;;;;;;;;;;4.80;99.90;;;;;;5080632;28;19915;-76
2022/01/31 08:16:25;;;;;;;;;;;4.80;99.90;;;;;;5080462;28;20018;-78
2022/01/31 08:18:50;;;;;;;;;;;4.70;99.90;;;;;;5083307;28;19991;-74
2022/01/31 08:21:16;;;;;;;;;;;4.70;99.90;;;;;;5085377;28;20308;-74
2022/01/31 08:23:42;;;;;;;;;;;4.70;99.90;;;;;;5084531;28;19938;-74
2022/01/31 08:26:16;;;;;;;;;;;4.70;99.90;;;;;;5086585;28;19931;-80
2022/01/31 08:28:53;;;;;;;;;;;4.70;99.90;;;;;;5067573;28;20357;-75
2022/01/31 08:31:24;;;;;;;;;;;4.70;99.90;;;;;;5085481;28;19920;-76
2022/01/31 08:34:05;;;;;;;;;;;;;;;;;;5077863;28;20384;-79
2022/01/31 08:36:34;;;;;;;;;;;;;;;;;;5082793;28;20007;-77
2022/01/31 08:39:00;;;;;;;;;;;4.80;99.90;;;;;;5081454;28;19953;-78
2022/01/31 08:41:26;;;;;;;;;;;4.80;99.90;;;;;;5083486;28;19915;-78
2022/01/31 08:43:52;;;;;;;;;;;;;;;;;;5080631;28;19928;-77
2022/01/31 08:46:18;;;;;;;;;;;4.90;99.90;;;;;;5083311;28;20368;-77
2022/01/31 08:48:44;;;;;;;;;;;;;;;;;;5080571;28;20292;-78
2022/01/31 08:51:10;;;;;;;;;;;4.90;99.90;;;;;;5063946;28;19920;-78
2022/01/31 08:53:36;;;;;;;;;;;4.80;99.90;;;;;;5081958;28;20280;-78
2022/01/31 08:56:02;;;;;;;;;;;;;;;;;;5082518;28;19965;-78
2022/01/31 08:58:28;;;;;;;;;;;;;;;;;;5081708;28;19969;-78
2022/01/31 09:01:06;;;;;;;;;;;;;;;;;;5063666;28;20276;-78
2022/01/31 09:06:12;;;;;;;;;;;4.60;99.90;;;;;;5080739;28;20391;-74
2022/01/31 09:08:38;;;;;;;;;;;;;;;;;;5081404;28;19908;-74
2022/01/31 09:11:04;;;;;;;;;;;4.60;99.90;;;;;;5081501;28;20418;-76
2022/01/31 09:13:30;;;;;;;;;;;;;;;;;;5084325;28;20368;-75
2022/01/31 09:15:55;;;;;;;;;;;;;;;;;;5090935;28;20004;-76
2022/01/31 09:18:21;;;;;;;;;;;4.50;99.90;;;;;;5082329;28;20013;-75
2022/01/31 09:20:47;;;;;;;;;;;;;;;;;;5081844;28;19908;-76
2022/01/31 09:23:13;;;;;;;;;;;;;;;;;;5082261;28;19989;-76
2022/01/31 09:25:44;;;;;;;;;;;;;;;;;;5081096;28;19918;-78
2022/01/31 09:28:10;;;;;;;;;;;4.50;99.90;;;;;;5082226;28;19919;-77
2022/01/31 09:30:36;;;;;;;;;;;4.50;99.90;;;;;;5072010;28;19909;-77
2022/01/31 09:33:02;;;;;;;;;;;;;;;;;;5070910;28;19917;-77
2022/01/31 09:35:28;;;;;;;;;;;4.50;99.90;;;;;;5076786;28;19932;-77
2022/01/31 09:37:54;;;;;;;;;;;;;;;;;;5078860;28;19916;-78
2022/01/31 09:40:22;;;;;;;;;;;;;;;;;;5082442;28;19912;-77
2022/01/31 09:43:01;;;;;;;;;;;;;;;;;;5081959;28;19924;-76
2022/01/31 09:45:43;;;;;;;;;;;;;;;;;;5081330;28;19958;-76
2022/01/31 09:48:51;;;;;;;;;;;;;;;;;;5089336;28;20023;-76
2022/01/31 09:51:08;;;;;;;;;;;4.50;99.90;;;;;;5071448;28;20356;-76
2022/01/31 09:53:38;;;;;;;;;;;4.40;99.90;;;;;;5077529;28;19919;-76
2022/01/31 09:56:04;;;;;;;;;;;;;;;;;;5070843;28;19913;-75
2022/01/31 09:58:29;;;;;;;;;;;;;;;;;;5071835;28;19909;-75
2022/01/31 10:00:55;;;;;;;;;;;;;;;;;;5079637;28;19919;-75
2022/01/31 10:03:21;;;;;;;;;;;;;;;;;;5097761;28;19942;-78
2022/01/31 10:05:47;;;;;;;;;;;;;;;;;;5103045;28;19950;-76
2022/01/31 10:08:13;;;;;;;;;;;;;;;;;;5091323;28;20829;-77
2022/01/31 10:10:40;;;;;;;;;;;;;;;;;;5101056;28;19923;-79
2022/01/31 10:18:16;;;;;;;;;;;4.50;99.90;;;;;;5093536;28;20290;-79
2022/01/31 10:20:42;;;;;;;;;;;;;;;;;;5114536;27;20295;-78
2022/01/31 10:23:08;;;;;;;;;;;;;;;;;;5100478;28;19995;-79
2022/01/31 10:25:34;;;;;;;;;;;;;;;;;;5082077;28;19935;-78
2022/01/31 10:28:00;;;;;;;;;;;;;;;;;;5098364;28;19930;-80
2022/01/31 10:30:26;;;;;;;;;;;;;;;;;;5101125;28;19911;-80
2022/01/31 10:32:53;;;;;;;;;;;4.60;99.90;;;;;;5098584;28;19939;-80
2022/01/31 10:35:19;;;;;;;;;;;;;;;;;;5100055;28;20007;-80
2022/01/31 10:37:45;;;;;;;;;;;;;;;;;;5099988;28;19908;-78
2022/01/31 10:45:54;;;;;;;;;;;;;;;;;;5090383;28;19919;-78
2022/01/31 10:53:49;;;;;;;;;;;4.60;99.90;;;;;;5101166;28;19939;-77
2022/01/31 10:56:15;;;;;;;;;;;4.60;99.90;;;;;;5081870;28;19960;-79
2022/01/31 10:59:00;;;;;;;;;;;4.60;99.90;;;;;;5099854;28;19915;-80
2022/01/31 11:01:26;;;;;;;;;;;;;;;;;;5100852;28;19912;-78
2022/01/31 11:03:52;;;;;;;;;;;;;;;;;;5089563;28;20384;-79
2022/01/31 11:06:19;;;;;;;;;;;;;;;;;;5090004;28;19923;-79
2022/01/31 11:08:45;;;;;;;;;;;;;;;;;;5090075;28;19969;-78
2022/01/31 11:11:11;;;;;;;;;;;;;;;;;;5071249;28;20202;-79
2022/01/31 11:13:37;;;;;;;;;;;;;;;;;;5089816;28;19912;-79
2022/01/31 11:16:04;;;;;;;;;;;;;;;;;;5071381;28;20279;-79
2022/01/31 11:18:30;;;;;;;;;;;;;;;;;;5089937;28;20356;-78
2022/01/31 11:20:57;;;;;;;;;;;;;;;;;;5089247;28;19965;-79
2022/01/31 11:23:26;;;;;;;;;;;4.60;99.90;;;;;;5087069;28;20015;-76
2022/01/31 11:25:53;;;;;;;;;;;4.60;99.90;;;;;;5089389;28;19965;-79
2022/01/31 11:28:19;;;;;;;;;;;;;;;;;;5090101;28;19923;-80
2022/01/31 11:30:45;;;;;;;;;;;;;;;;;;5090075;28;19912;-76
2022/01/31 11:33:11;;;;;;;;;;;;;;;;;;5070633;28;19916;-76
2022/01/31 11:35:37;;;;;;;;;;;;;;;;;;5089929;28;19918;-78
2022/01/31 11:38:03;;;;;;;;;;;;;;;;;;5089085;28;19923;-78
2022/01/31 11:40:29;;;;;;;;;;;;;;;;;;5071520;28;19912;-75
2022/01/31 11:42:55;;;;;;;;;;;4.70;99.90;;;;;;5088913;28;19920;-78
2022/01/31 11:45:21;;;;;;;;;;;;;;;;;;5089697;28;19912;-75
2022/01/31 11:47:49;;;;;;;;;;;;;;;;;;5089536;28;20012;-79
2022/01/31 11:50:15;;;;;;;;;;;;;;;;;;5071177;28;19912;-78
2022/01/31 11:52:41;;;;;;;;;;;;;;;;;;5089504;28;19934;-77
2022/01/31 11:55:08;;;;;;;;;;;4.70;99.90;;;;;;5088478;28;19923;-76
2022/01/31 11:57:34;;;;;;;;;;;;;;;;;;5089060;28;19957;-77
2022/01/31 12:00:00;;;;;;;;;;;;;;;;;;5089137;28;19915;-77
2022/01/31 12:02:26;;;;;;;;;;;;;;;;;;5089256;28;19969;-78
